createdAt,value
2019-03-21T00:01:48.661Z,3.73
2019-03-21T00:04:18.754Z,3.77
2019-03-21T00:06:49.315Z,3.70
2019-03-21T00:09:20.078Z,3.60
2019-03-21T00:12:07.394Z,3.90
2019-03-21T00:14:53.066Z,3.77
2019-03-21T00:17:26.208Z,3.97
2019-03-21T00:19:56.353Z,4.23
2019-03-21T00:22:26.548Z,3.40
2019-03-21T00:24:56.644Z,3.90
2019-03-21T00:27:27.371Z,4.00
2019-03-21T00:29:57.585Z,3.97
2019-03-21T00:32:27.665Z,3.90
2019-03-21T00:34:58.135Z,4.07
2019-03-21T00:37:28.524Z,3.63
2019-03-21T00:39:58.601Z,3.43
2019-03-21T00:42:28.795Z,3.57
2019-03-21T00:44:58.972Z,3.80
2019-03-21T00:47:29.739Z,3.60
2019-03-21T00:50:18.917Z,3.40
2019-03-21T00:52:50.603Z,3.33
2019-03-21T00:55:20.709Z,3.33
2019-03-21T00:57:51.279Z,4.03
2019-03-21T01:00:42.959Z,3.57
2019-03-21T01:03:31.844Z,4.10
2019-03-21T01:06:01.946Z,3.23
2019-03-21T01:08:32.042Z,3.90
2019-03-21T01:11:02.120Z,3.70
2019-03-21T01:13:33.839Z,3.37
2019-03-21T01:16:04.162Z,3.70
2019-03-21T01:18:34.835Z,3.87
2019-03-21T01:21:05.029Z,3.47
2019-03-21T01:23:35.129Z,3.63
2019-03-21T01:26:05.528Z,3.50
2019-03-21T01:28:35.620Z,3.40
2019-03-21T01:31:05.843Z,3.07
2019-03-21T01:33:36.395Z,3.90
2019-03-21T01:36:06.667Z,3.87
2019-03-21T01:38:39.663Z,3.07
2019-03-21T01:41:09.853Z,2.93
2019-03-21T01:43:40.039Z,3.20
2019-03-21T01:46:11.332Z,3.47
2019-03-21T01:48:41.521Z,3.50
2019-03-21T01:51:11.625Z,3.27
2019-03-21T01:53:41.770Z,3.53
2019-03-21T01:56:11.946Z,3.37
2019-03-21T01:58:42.055Z,3.30
2019-03-21T02:01:12.489Z,3.73
2019-03-21T02:03:42.699Z,3.00
2019-03-21T02:06:13.252Z,2.80
2019-03-21T02:08:43.328Z,3.10
2019-03-21T02:11:13.812Z,3.30
2019-03-21T02:13:44.320Z,3.00
2019-03-21T02:16:14.396Z,3.50
2019-03-21T02:18:44.632Z,3.33
2019-03-21T02:21:15.733Z,3.23
2019-03-21T02:23:45.882Z,2.60
2019-03-21T02:26:16.054Z,2.47
2019-03-21T02:28:46.238Z,3.30
2019-03-21T02:31:16.467Z,3.13
2019-03-21T02:33:46.557Z,3.30
2019-03-21T02:36:17.002Z,3.40
2019-03-21T02:38:47.166Z,3.27
2019-03-21T02:41:17.266Z,3.33
2019-03-21T02:43:47.710Z,3.70
2019-03-21T02:46:17.872Z,4.00
2019-03-21T02:48:47.958Z,3.97
2019-03-21T02:51:18.111Z,3.97
2019-03-21T02:53:48.219Z,3.80
2019-03-21T02:56:19.077Z,3.80
2019-03-21T02:58:49.152Z,4.27
2019-03-21T03:01:19.224Z,4.00
2019-03-21T03:03:49.785Z,4.73
2019-03-21T03:06:19.879Z,4.70
2019-03-21T03:08:50.321Z,4.40
2019-03-21T03:11:20.712Z,3.83
2019-03-21T03:13:51.024Z,4.07
2019-03-21T03:16:21.663Z,5.00
2019-03-21T03:18:52.009Z,4.67
2019-03-21T03:21:22.347Z,4.53
2019-03-21T03:23:52.443Z,4.93
2019-03-21T03:26:22.515Z,4.63
2019-03-21T03:28:52.596Z,4.33
2019-03-21T03:31:22.674Z,4.67
2019-03-21T03:33:52.847Z,4.20
2019-03-21T03:36:22.923Z,5.40
2019-03-21T03:38:52.995Z,4.63
2019-03-21T03:41:23.086Z,4.60
2019-03-21T03:43:56.006Z,4.27
2019-03-21T03:46:26.182Z,4.63
2019-03-21T03:48:56.379Z,4.57
2019-03-21T03:51:26.874Z,4.57
2019-03-21T03:53:57.228Z,4.60
2019-03-21T03:56:29.475Z,4.77
2019-03-21T03:59:00.066Z,4.40
2019-03-21T04:01:30.419Z,4.60
2019-03-21T04:04:00.492Z,4.70
2019-03-21T04:06:30.548Z,4.60
2019-03-21T04:09:00.659Z,3.80
2019-03-21T04:11:30.825Z,4.23
2019-03-21T04:14:00.916Z,4.53
2019-03-21T04:16:31.002Z,4.67
2019-03-21T04:19:01.131Z,4.83
2019-03-21T04:21:31.594Z,4.13
2019-03-21T04:24:01.711Z,4.77
2019-03-21T04:26:32.172Z,3.97
2019-03-21T04:29:02.297Z,4.20
2019-03-21T04:31:32.430Z,4.30
2019-03-21T04:34:04.323Z,4.23
2019-03-21T04:36:34.501Z,4.33
2019-03-21T04:39:06.786Z,5.30
2019-03-21T04:41:37.491Z,4.37
2019-03-21T04:44:08.013Z,4.80
2019-03-21T04:46:38.272Z,4.43
2019-03-21T04:49:08.443Z,4.43
2019-03-21T04:51:38.623Z,4.33
2019-03-21T04:54:08.749Z,4.47
2019-03-21T04:56:38.954Z,4.77
2019-03-21T04:59:09.513Z,4.13
2019-03-21T05:01:39.665Z,4.13
2019-03-21T05:04:09.676Z,4.27
2019-03-21T05:06:39.844Z,4.40
2019-03-21T05:09:13.574Z,4.80
2019-03-21T05:11:43.752Z,4.70
2019-03-21T05:14:13.891Z,4.73
2019-03-21T05:16:43.963Z,4.30
2019-03-21T05:19:14.035Z,4.13
2019-03-21T05:21:44.185Z,4.03
2019-03-21T05:24:14.349Z,3.67
2019-03-21T05:26:44.815Z,3.97
2019-03-21T05:29:14.985Z,4.30
2019-03-21T05:32:03.853Z,3.73
2019-03-21T05:34:34.145Z,3.77
2019-03-21T05:37:04.293Z,3.97
2019-03-21T05:39:34.809Z,3.57
2019-03-21T05:42:08.811Z,4.13
2019-03-21T05:44:41.988Z,3.80
2019-03-21T05:47:12.078Z,3.77
2019-03-21T05:49:42.284Z,3.70
2019-03-21T05:52:12.775Z,3.73
2019-03-21T05:54:44.141Z,3.77
2019-03-21T05:57:14.242Z,4.00
2019-03-21T05:59:46.810Z,4.10
2019-03-21T06:02:16.960Z,3.37
2019-03-21T06:04:48.010Z,4.43
2019-03-21T06:07:25.670Z,4.10
2019-03-21T06:09:56.145Z,3.10
2019-03-21T06:12:27.722Z,3.57
2019-03-21T06:15:00.304Z,3.17
2019-03-21T06:17:32.205Z,3.70
2019-03-21T06:20:34.920Z,4.20
2019-03-21T06:23:43.517Z,3.50
2019-03-21T06:26:47.138Z,3.53
2019-03-21T06:29:20.075Z,3.90
2019-03-21T06:31:50.274Z,3.70
2019-03-21T06:34:20.498Z,3.43
2019-03-21T06:36:50.726Z,3.83
2019-03-21T06:39:21.406Z,3.43
2019-03-21T06:41:51.610Z,3.93
2019-03-21T06:44:21.736Z,3.37
2019-03-21T06:46:52.087Z,3.13
2019-03-21T06:49:22.188Z,2.97
2019-03-21T06:51:52.544Z,3.80
2019-03-21T06:54:22.708Z,3.20
2019-03-21T06:56:52.929Z,3.43
2019-03-21T06:59:23.093Z,3.23
2019-03-21T07:01:53.220Z,3.17
2019-03-21T07:04:23.362Z,3.17
2019-03-21T07:06:53.746Z,3.20
2019-03-21T07:09:23.915Z,3.33
2019-03-21T07:11:54.000Z,3.13
2019-03-21T07:14:24.255Z,3.27
2019-03-21T07:17:00.342Z,3.00
2019-03-21T07:19:26.280Z,3.17
2019-03-21T07:21:56.351Z,3.27
2019-03-21T07:24:26.859Z,3.20
2019-03-21T07:26:57.029Z,3.23
2019-03-21T07:29:27.186Z,2.47
2019-03-21T07:31:57.338Z,2.80
2019-03-21T07:34:27.422Z,2.97
2019-03-21T07:36:57.519Z,2.87
2019-03-21T07:39:28.775Z,2.60
2019-03-21T07:42:01.056Z,2.70
2019-03-21T07:44:30.760Z,3.23
2019-03-21T07:47:12.034Z,2.97
2019-03-21T07:49:32.931Z,3.00
2019-03-21T07:52:03.003Z,3.00
2019-03-21T07:54:33.511Z,2.70
2019-03-21T07:57:03.592Z,2.60
2019-03-21T07:59:33.858Z,2.47
2019-03-21T08:02:04.376Z,2.43
2019-03-21T08:04:34.540Z,2.40
2019-03-21T08:07:04.968Z,2.10
2019-03-21T08:09:35.191Z,2.80
2019-03-21T08:12:05.425Z,2.27
2019-03-21T08:14:35.595Z,2.53
2019-03-21T08:17:05.788Z,2.33
2019-03-21T08:19:35.887Z,2.10
2019-03-21T08:22:24.603Z,2.03
2019-03-21T08:24:54.797Z,2.20
2019-03-21T08:27:25.705Z,2.23
2019-03-21T08:29:55.866Z,2.30
2019-03-21T08:32:25.965Z,2.33
2019-03-21T08:34:56.115Z,1.97
2019-03-21T08:37:27.386Z,2.60
2019-03-21T08:39:57.884Z,2.17
2019-03-21T08:42:28.074Z,2.73
2019-03-21T08:44:58.269Z,2.13
2019-03-21T08:47:28.338Z,2.33
2019-03-21T08:49:58.460Z,2.77
2019-03-21T08:52:28.542Z,2.20
2019-03-21T08:54:58.634Z,2.47
2019-03-21T08:57:29.139Z,2.30
2019-03-21T08:59:59.203Z,2.10
2019-03-21T09:02:29.601Z,2.83
2019-03-21T09:05:00.076Z,2.60
2019-03-21T09:07:30.232Z,2.53
2019-03-21T09:10:00.463Z,2.40
2019-03-21T09:12:30.575Z,2.40
2019-03-21T09:15:00.715Z,2.50
2019-03-21T09:17:30.833Z,2.43
2019-03-21T09:20:00.979Z,2.43
2019-03-21T09:22:31.177Z,2.40
2019-03-21T09:25:01.260Z,2.20
2019-03-21T09:27:31.690Z,2.47
2019-03-21T09:30:02.148Z,2.50
2019-03-21T09:32:32.263Z,2.83
2019-03-21T09:35:02.459Z,2.70
2019-03-21T09:37:32.589Z,2.80
2019-03-21T09:40:02.674Z,2.57
2019-03-21T09:42:32.882Z,2.63
2019-03-21T09:45:02.978Z,2.50
2019-03-21T09:47:33.065Z,2.77
2019-03-21T09:50:03.164Z,2.17
2019-03-21T09:52:33.333Z,2.80
2019-03-21T09:55:03.775Z,2.70
2019-03-21T09:57:35.678Z,2.80
2019-03-21T10:00:06.609Z,2.73
2019-03-21T10:02:38.186Z,2.70
2019-03-21T10:05:08.234Z,2.77
2019-03-21T10:07:38.323Z,3.60
2019-03-21T10:10:08.425Z,2.47
2019-03-21T10:12:38.619Z,2.53
2019-03-21T10:15:08.778Z,2.73
2019-03-21T10:17:38.919Z,2.77
2019-03-21T10:20:09.033Z,2.70
2019-03-21T10:22:39.172Z,3.00
2019-03-21T10:25:09.336Z,2.73
2019-03-21T10:27:39.703Z,3.83
2019-03-21T10:30:10.050Z,3.77
2019-03-21T10:32:40.559Z,19.90
2019-03-21T10:35:10.707Z,15.00
2019-03-21T10:37:40.876Z,12.87
2019-03-21T10:40:12.604Z,13.17
2019-03-21T10:42:42.754Z,12.93
2019-03-21T10:45:13.024Z,12.67
2019-03-21T10:47:44.912Z,12.27
2019-03-21T10:50:18.577Z,11.13
2019-03-21T10:52:48.727Z,10.77
2019-03-21T10:55:18.962Z,11.20
2019-03-21T10:57:49.150Z,10.50
2019-03-21T11:00:19.435Z,8.73
2019-03-21T11:02:49.991Z,10.87
2019-03-21T11:05:20.161Z,9.53
2019-03-21T11:07:53.047Z,9.30
2019-03-21T11:10:25.549Z,9.80
2019-03-21T11:12:55.643Z,9.57
2019-03-21T11:15:25.767Z,9.17
2019-03-21T11:17:56.169Z,8.63
2019-03-21T11:20:37.283Z,9.27
2019-03-21T11:23:09.531Z,9.07
2019-03-21T11:25:39.717Z,8.10
2019-03-21T11:28:09.809Z,7.93
2019-03-21T11:30:44.162Z,8.20
2019-03-21T11:33:14.311Z,8.60
2019-03-21T11:35:44.817Z,8.47
2019-03-21T11:38:14.979Z,8.93
2019-03-21T11:40:45.109Z,7.90
2019-03-21T11:43:19.684Z,7.63
2019-03-21T11:45:55.796Z,8.37
2019-03-21T11:48:25.898Z,8.07
2019-03-21T11:50:56.048Z,8.20
2019-03-21T11:53:26.121Z,7.60
2019-03-21T11:55:56.504Z,8.40
2019-03-21T11:58:26.744Z,7.17
2019-03-21T12:00:56.929Z,7.53
2019-03-21T12:03:27.042Z,7.73
2019-03-21T12:05:57.196Z,6.50
2019-03-21T12:08:27.292Z,7.80
2019-03-21T12:10:57.433Z,7.83
2019-03-21T12:13:27.602Z,7.87
2019-03-21T12:15:57.764Z,7.87
2019-03-21T12:18:27.943Z,8.13
2019-03-21T12:20:58.199Z,8.10
2019-03-21T12:23:28.661Z,7.80
2019-03-21T12:25:58.822Z,6.17
2019-03-21T12:28:29.005Z,6.70
2019-03-21T12:30:59.236Z,6.63
2019-03-21T12:33:29.418Z,6.30
2019-03-21T12:35:59.576Z,7.63
2019-03-21T12:38:38.561Z,6.70
2019-03-21T12:41:08.745Z,6.07
2019-03-21T12:43:38.829Z,6.27
2019-03-21T12:46:09.034Z,6.47
2019-03-21T12:48:39.557Z,5.77
2019-03-21T12:51:10.267Z,5.83
2019-03-21T12:53:40.865Z,5.80
2019-03-21T12:56:11.212Z,6.00
2019-03-21T12:58:41.396Z,5.50
2019-03-21T13:01:11.545Z,6.03
2019-03-21T13:03:41.947Z,5.17
2019-03-21T13:06:12.028Z,5.30
2019-03-21T13:08:42.117Z,5.60
2019-03-21T13:11:12.287Z,5.37
2019-03-21T13:13:42.772Z,5.60
2019-03-21T13:16:13.265Z,6.20
2019-03-21T13:18:43.647Z,6.53
2019-03-21T13:21:13.741Z,7.73
2019-03-21T13:23:43.833Z,10.13
2019-03-21T13:26:13.905Z,10.67
2019-03-21T13:28:44.369Z,10.80
2019-03-21T13:31:14.825Z,11.53
2019-03-21T13:33:44.909Z,13.47
2019-03-21T13:36:15.078Z,14.17
2019-03-21T13:38:45.161Z,14.83
2019-03-21T13:41:15.379Z,16.60
2019-03-21T13:43:45.473Z,16.67
2019-03-21T13:46:15.539Z,18.20
2019-03-21T13:48:45.624Z,18.33
2019-03-21T13:51:15.890Z,17.97
2019-03-21T13:53:46.011Z,19.00
2019-03-21T13:56:16.192Z,20.67
2019-03-21T13:58:46.713Z,20.17
2019-03-21T14:01:16.815Z,20.67
2019-03-21T14:03:46.909Z,21.50
2019-03-21T14:06:17.229Z,20.93
2019-03-21T14:08:47.439Z,21.27
2019-03-21T14:11:19.323Z,19.60
2019-03-21T14:13:49.612Z,19.60
2019-03-21T14:16:19.786Z,19.80
2019-03-21T14:18:49.930Z,19.70
2019-03-21T14:21:20.054Z,26.43
2019-03-21T14:23:50.512Z,26.07
2019-03-21T14:26:20.680Z,27.63
2019-03-21T14:28:50.867Z,28.43
2019-03-21T14:31:20.933Z,26.77
2019-03-21T14:33:51.835Z,26.30
2019-03-21T14:36:22.319Z,26.97
2019-03-21T14:38:52.478Z,25.33
2019-03-21T14:41:22.670Z,24.70
2019-03-21T14:43:52.819Z,24.50
2019-03-21T14:46:23.297Z,23.90
2019-03-21T14:48:53.381Z,23.30
2019-03-21T14:51:23.549Z,23.30
2019-03-21T14:53:53.690Z,22.80
2019-03-21T14:56:24.123Z,21.03
2019-03-21T14:58:54.258Z,20.93
2019-03-21T15:01:24.348Z,21.37
2019-03-21T15:03:54.437Z,20.17
2019-03-21T15:06:24.530Z,19.93
2019-03-21T15:08:54.711Z,19.30
2019-03-21T15:11:25.049Z,19.67
2019-03-21T15:13:55.143Z,18.47
2019-03-21T15:16:25.233Z,18.43
2019-03-21T15:18:55.415Z,17.43
2019-03-21T15:21:25.612Z,17.40
2019-03-21T15:23:59.619Z,17.37
2019-03-21T15:26:27.599Z,17.50
2019-03-21T15:28:58.069Z,16.17
2019-03-21T15:31:28.151Z,16.63
2019-03-21T15:33:58.236Z,17.63
2019-03-21T15:36:28.356Z,15.10
2019-03-21T15:38:58.672Z,15.00
2019-03-21T15:41:29.123Z,14.00
2019-03-21T15:43:59.310Z,15.23
2019-03-21T15:46:29.497Z,14.33
2019-03-21T15:48:59.665Z,14.10
2019-03-21T15:51:29.786Z,13.50
2019-03-21T15:53:59.888Z,14.63
2019-03-21T15:56:29.991Z,13.10
2019-03-21T15:59:00.212Z,14.17
2019-03-21T16:01:30.392Z,12.80
2019-03-21T16:04:00.867Z,13.33
2019-03-21T16:06:31.036Z,12.90
2019-03-21T16:09:01.172Z,12.33
2019-03-21T16:11:31.330Z,12.53
2019-03-21T16:14:02.015Z,12.60
2019-03-21T16:16:32.099Z,12.23
2019-03-21T16:19:02.262Z,10.47
2019-03-21T16:21:32.469Z,11.20
2019-03-21T16:24:05.446Z,11.00
2019-03-21T16:26:36.612Z,9.93
2019-03-21T16:29:06.422Z,10.50
2019-03-21T16:31:36.586Z,10.53
2019-03-21T16:34:07.084Z,9.83
2019-03-21T16:36:37.167Z,10.40
2019-03-21T16:39:08.538Z,9.87
2019-03-21T16:41:40.604Z,9.40
2019-03-21T16:44:11.025Z,9.30
2019-03-21T16:46:41.239Z,8.67
2019-03-21T16:49:11.393Z,9.03
2019-03-21T16:51:41.902Z,8.50
2019-03-21T16:54:17.159Z,8.67
2019-03-21T16:56:44.188Z,8.97
2019-03-21T16:59:16.167Z,8.30
2019-03-21T17:01:46.333Z,8.60
2019-03-21T17:04:16.483Z,7.90
2019-03-21T17:06:46.648Z,8.03
2019-03-21T17:09:16.975Z,8.83
2019-03-21T17:11:47.120Z,8.37
2019-03-21T17:14:17.612Z,7.97
2019-03-21T17:16:47.681Z,7.90
2019-03-21T17:19:18.089Z,7.97
2019-03-21T17:21:48.200Z,6.63
2019-03-21T17:24:28.758Z,7.17
2019-03-21T17:26:50.337Z,6.00
2019-03-21T17:29:20.576Z,7.23
2019-03-21T17:31:50.676Z,7.07
2019-03-21T17:34:20.844Z,6.90
2019-03-21T17:36:51.283Z,7.10
2019-03-21T17:39:21.720Z,6.50
2019-03-21T17:41:52.105Z,6.10
2019-03-21T17:44:22.251Z,6.83
2019-03-21T17:46:52.397Z,6.90
2019-03-21T17:49:22.699Z,7.07
2019-03-21T17:51:52.835Z,7.10
2019-03-21T17:54:22.988Z,6.20
2019-03-21T17:56:53.076Z,6.30
2019-03-21T17:59:23.236Z,6.57
2019-03-21T18:01:53.710Z,6.80
2019-03-21T18:04:23.782Z,6.13
2019-03-21T18:06:53.892Z,6.33
2019-03-21T18:09:23.955Z,6.57
2019-03-21T18:11:54.346Z,6.10
2019-03-21T18:14:24.517Z,5.57
2019-03-21T18:16:54.677Z,6.57
2019-03-21T18:19:24.871Z,6.87
2019-03-21T18:21:54.969Z,5.97
2019-03-21T18:24:25.057Z,6.00
2019-03-21T18:26:56.535Z,5.97
2019-03-21T18:29:26.663Z,6.50
2019-03-21T18:31:56.773Z,6.03
2019-03-21T18:34:26.846Z,5.70
2019-03-21T18:36:56.947Z,6.10
2019-03-21T18:39:27.048Z,5.87
2019-03-21T18:41:57.461Z,6.40
2019-03-21T18:44:27.682Z,5.80
2019-03-21T18:46:57.834Z,5.90
2019-03-21T18:49:27.997Z,5.57
2019-03-21T18:51:58.139Z,5.53
2019-03-21T18:54:28.619Z,5.60
2019-03-21T18:56:58.789Z,6.50
2019-03-21T18:59:28.946Z,5.80
2019-03-21T19:01:59.213Z,5.87
2019-03-21T19:04:29.364Z,6.30
2019-03-21T19:06:59.553Z,6.17
2019-03-21T19:09:29.742Z,5.90
2019-03-21T19:12:00.144Z,5.27
2019-03-21T19:14:30.669Z,6.07
2019-03-21T19:17:01.134Z,6.77
2019-03-21T19:19:31.287Z,5.83
2019-03-21T19:22:01.811Z,6.23
2019-03-21T19:24:32.321Z,6.30
2019-03-21T19:27:02.789Z,6.77
2019-03-21T19:29:32.971Z,6.20
2019-03-21T19:32:03.087Z,6.50
2019-03-21T19:34:33.555Z,6.97
2019-03-21T19:37:03.647Z,6.83
2019-03-21T19:39:33.870Z,6.13
2019-03-21T19:42:05.551Z,6.77
2019-03-21T19:44:35.939Z,6.73
2019-03-21T19:47:06.087Z,6.43
2019-03-21T19:49:36.311Z,7.07
2019-03-21T19:52:06.840Z,6.67
2019-03-21T19:54:37.001Z,6.63
2019-03-21T19:57:07.150Z,6.13
2019-03-21T19:59:37.513Z,6.93
2019-03-21T20:02:07.973Z,6.47
2019-03-21T20:04:38.147Z,6.30
2019-03-21T20:07:08.399Z,6.77
2019-03-21T20:09:40.672Z,6.83
2019-03-21T20:12:11.193Z,6.80
2019-03-21T20:14:41.364Z,6.70
2019-03-21T20:17:11.638Z,7.43
2019-03-21T20:19:41.743Z,7.23
2019-03-21T20:22:11.900Z,7.30
2019-03-21T20:24:42.357Z,6.83
2019-03-21T20:27:12.474Z,6.70
2019-03-21T20:29:42.668Z,6.47
2019-03-21T20:32:20.567Z,6.40
2019-03-21T20:34:44.765Z,7.50
2019-03-21T20:37:15.085Z,6.67
2019-03-21T20:39:45.573Z,6.47
2019-03-21T20:42:15.675Z,7.40
2019-03-21T20:44:46.070Z,8.77
2019-03-21T20:47:16.240Z,8.37
2019-03-21T20:49:46.404Z,8.73
2019-03-21T20:52:16.513Z,8.97
2019-03-21T20:54:46.693Z,9.53
2019-03-21T20:57:16.869Z,8.37
2019-03-21T20:59:46.980Z,9.77
2019-03-21T21:02:17.078Z,9.33
2019-03-21T21:04:47.187Z,9.93
2019-03-21T21:07:17.400Z,9.53
2019-03-21T21:09:47.596Z,10.07
2019-03-21T21:12:17.896Z,10.37
2019-03-21T21:14:48.001Z,9.53
2019-03-21T21:17:18.215Z,9.50
2019-03-21T21:19:48.350Z,10.47
2019-03-21T21:22:18.461Z,8.97
2019-03-21T21:24:48.579Z,9.60
2019-03-21T21:27:18.992Z,9.60
2019-03-21T21:29:49.121Z,9.00
2019-03-21T21:32:19.290Z,10.03
2019-03-21T21:34:49.900Z,9.60
2019-03-21T21:37:20.074Z,10.57
2019-03-21T21:39:50.191Z,9.60
2019-03-21T21:42:20.323Z,10.10
2019-03-21T21:44:50.417Z,10.53
2019-03-21T21:47:20.987Z,9.83
2019-03-21T21:49:51.093Z,9.70
2019-03-21T21:52:21.274Z,10.50
2019-03-21T21:54:51.740Z,10.27
2019-03-21T21:57:21.915Z,9.47
2019-03-21T21:59:53.125Z,10.43
2019-03-21T22:02:23.324Z,9.83
2019-03-21T22:04:53.849Z,10.70
2019-03-21T22:07:23.979Z,10.00
2019-03-21T22:09:54.143Z,9.77
2019-03-21T22:12:24.320Z,9.30
2019-03-21T22:14:54.466Z,9.80
2019-03-21T22:17:24.636Z,11.70
2019-03-21T22:19:55.232Z,10.40
2019-03-21T22:22:25.366Z,10.50
2019-03-21T22:24:55.508Z,10.47
2019-03-21T22:27:25.601Z,10.27
2019-03-21T22:29:55.774Z,9.83
2019-03-21T22:32:25.972Z,10.20
2019-03-21T22:34:56.098Z,10.00
2019-03-21T22:37:26.675Z,9.80
2019-03-21T22:39:56.784Z,9.97
2019-03-21T22:42:26.877Z,8.50
2019-03-21T22:44:57.081Z,10.60
2019-03-21T22:47:27.404Z,10.47
2019-03-21T22:49:57.514Z,10.37
2019-03-21T22:52:27.960Z,10.63
2019-03-21T22:54:58.155Z,10.83
2019-03-21T22:57:28.271Z,11.03
2019-03-21T22:59:58.369Z,11.50
2019-03-21T23:02:28.454Z,11.10
2019-03-21T23:04:58.627Z,10.27
2019-03-21T23:07:28.720Z,11.10
2019-03-21T23:09:58.906Z,10.63
2019-03-21T23:12:29.169Z,11.53
2019-03-21T23:14:59.297Z,10.83
2019-03-21T23:17:30.146Z,10.53
2019-03-21T23:20:00.389Z,10.60
2019-03-21T23:22:31.073Z,9.77
2019-03-21T23:25:01.229Z,10.03
2019-03-21T23:27:31.693Z,9.93
2019-03-21T23:30:01.835Z,9.70
2019-03-21T23:32:31.992Z,9.23
2019-03-21T23:35:02.163Z,8.50
2019-03-21T23:37:32.256Z,9.47
2019-03-21T23:40:02.423Z,8.70
2019-03-21T23:42:32.597Z,9.00
2019-03-21T23:45:02.789Z,8.33
2019-03-21T23:47:32.860Z,7.93
2019-03-21T23:50:02.991Z,8.47
2019-03-21T23:52:33.386Z,8.57
2019-03-21T23:55:03.552Z,8.03
2019-03-21T23:57:33.723Z,7.73
